sensor_id;sensor_type;location;lat;lon;timestamp;temperature;humidity
36924;DHT22;22841;50.252;18.688;2023-03-01T00:01:22;-1.70;2.90
36924;DHT22;22841;50.252;18.688;2023-03-01T00:03:48;-1.70;6.20
36924;DHT22;22841;50.252;18.688;2023-03-01T00:06:15;-1.80;1.30
36924;DHT22;22841;50.252;18.688;2023-03-01T00:08:41;-1.80;8.70
36924;DHT22;22841;50.252;18.688;2023-03-01T00:11:14;-1.80;7.20
36924;DHT22;22841;50.252;18.688;2023-03-01T00:13:42;-1.80;12.40
36924;DHT22;22841;50.252;18.688;2023-03-01T00:16:13;-2.00;1.00
36924;DHT22;22841;50.252;18.688;2023-03-01T00:18:40;-2.10;6.60
36924;DHT22;22841;50.252;18.688;2023-03-01T00:21:06;-2.00;16.80
36924;DHT22;22841;50.252;18.688;2023-03-01T00:23:34;-1.90;13.30
36924;DHT22;22841;50.252;18.688;2023-03-01T00:26:01;-2.00;9.60
36924;DHT22;22841;50.252;18.688;2023-03-01T00:28:27;-2.10;10.70
36924;DHT22;22841;50.252;18.688;2023-03-01T00:30:53;-2.00;17.00
36924;DHT22;22841;50.252;18.688;2023-03-01T00:33:19;-2.00;9.80
36924;DHT22;22841;50.252;18.688;2023-03-01T00:35:45;-1.90;10.20
36924;DHT22;22841;50.252;18.688;2023-03-01T00:38:11;-2.00;12.00
36924;DHT22;22841;50.252;18.688;2023-03-01T00:40:37;-2.10;17.60
36924;DHT22;22841;50.252;18.688;2023-03-01T00:43:04;-1.90;18.50
36924;DHT22;22841;50.252;18.688;2023-03-01T00:45:30;-1.90;7.80
36924;DHT22;22841;50.252;18.688;2023-03-01T00:47:59;-1.90;10.40
36924;DHT22;22841;50.252;18.688;2023-03-01T00:50:25;-2.00;10.60
36924;DHT22;22841;50.252;18.688;2023-03-01T00:52:55;-1.90;9.80
36924;DHT22;22841;50.252;18.688;2023-03-01T00:55:22;-1.90;7.80
36924;DHT22;22841;50.252;18.688;2023-03-01T00:57:48;-2.00;6.80
36924;DHT22;22841;50.252;18.688;2023-03-01T01:00:15;-1.90;9.30
36924;DHT22;22841;50.252;18.688;2023-03-01T01:02:41;-1.90;6.60
36924;DHT22;22841;50.252;18.688;2023-03-01T01:05:07;-2.10;1.00
36924;DHT22;22841;50.252;18.688;2023-03-01T01:07:33;-2.10;11.00
36924;DHT22;22841;50.252;18.688;2023-03-01T01:09:59;-2.20;13.60
36924;DHT22;22841;50.252;18.688;2023-03-01T01:12:26;-2.10;17.00
36924;DHT22;22841;50.252;18.688;2023-03-01T01:30:27;-2.20;13.80
36924;DHT22;22841;50.252;18.688;2023-03-01T01:32:53;-2.10;13.80
36924;DHT22;22841;50.252;18.688;2023-03-01T01:35:20;-2.30;15.00
36924;DHT22;22841;50.252;18.688;2023-03-01T01:37:46;-2.20;16.80
36924;DHT22;22841;50.252;18.688;2023-03-01T02:03:37;-2.30;10.20
36924;DHT22;22841;50.252;18.688;2023-03-01T03:20:43;-2.60;24.90
36924;DHT22;22841;50.252;18.688;2023-03-01T03:23:09;-2.70;25.40
36924;DHT22;22841;50.252;18.688;2023-03-01T03:25:37;-2.70;25.10
36924;DHT22;22841;50.252;18.688;2023-03-01T03:28:05;-2.70;26.30
36924;DHT22;22841;50.252;18.688;2023-03-01T03:30:38;-2.70;26.80
36924;DHT22;22841;50.252;18.688;2023-03-01T03:33:07;-2.70;28.60
36924;DHT22;22841;50.252;18.688;2023-03-01T03:35:44;-2.70;29.40
36924;DHT22;22841;50.252;18.688;2023-03-01T03:38:12;-2.70;30.00
36924;DHT22;22841;50.252;18.688;2023-03-01T03:41:02;-2.70;27.60
36924;DHT22;22841;50.252;18.688;2023-03-01T03:43:30;-2.70;26.70
36924;DHT22;22841;50.252;18.688;2023-03-01T03:45:57;-2.70;25.70
36924;DHT22;22841;50.252;18.688;2023-03-01T03:48:23;-2.70;26.20
36924;DHT22;22841;50.252;18.688;2023-03-01T03:50:51;-2.70;24.50
36924;DHT22;22841;50.252;18.688;2023-03-01T03:53:18;-2.70;28.50
36924;DHT22;22841;50.252;18.688;2023-03-01T03:55:45;-2.70;24.40
36924;DHT22;22841;50.252;18.688;2023-03-01T03:58:15;-2.80;22.10
36924;DHT22;22841;50.252;18.688;2023-03-01T04:00:44;-2.70;25.80
36924;DHT22;22841;50.252;18.688;2023-03-01T04:03:11;-2.70;26.30
36924;DHT22;22841;50.252;18.688;2023-03-01T04:05:39;-2.70;22.60
36924;DHT22;22841;50.252;18.688;2023-03-01T04:08:06;-2.70;22.60
36924;DHT22;22841;50.252;18.688;2023-03-01T04:10:46;-2.70;20.00
36924;DHT22;22841;50.252;18.688;2023-03-01T04:13:19;-2.70;23.40
36924;DHT22;22841;50.252;18.688;2023-03-01T04:15:48;-2.70;22.90
36924;DHT22;22841;50.252;18.688;2023-03-01T04:18:15;-2.80;22.10
36924;DHT22;22841;50.252;18.688;2023-03-01T04:20:42;-2.80;25.30
36924;DHT22;22841;50.252;18.688;2023-03-01T04:23:15;-2.80;23.50
36924;DHT22;22841;50.252;18.688;2023-03-01T04:25:56;-2.80;21.80
36924;DHT22;22841;50.252;18.688;2023-03-01T04:28:24;-2.90;19.10
36924;DHT22;22841;50.252;18.688;2023-03-01T04:30:52;-2.90;22.90
36924;DHT22;22841;50.252;18.688;2023-03-01T04:33:19;-2.90;22.40
36924;DHT22;22841;50.252;18.688;2023-03-01T04:35:45;-2.90;27.00
36924;DHT22;22841;50.252;18.688;2023-03-01T04:38:11;-3.00;28.50
36924;DHT22;22841;50.252;18.688;2023-03-01T04:40:37;-2.90;25.90
36924;DHT22;22841;50.252;18.688;2023-03-01T04:43:04;-2.90;23.30
36924;DHT22;22841;50.252;18.688;2023-03-01T04:45:32;-2.90;20.40
36924;DHT22;22841;50.252;18.688;2023-03-01T04:47:58;-2.90;22.90
36924;DHT22;22841;50.252;18.688;2023-03-01T04:50:24;-3.00;21.90
36924;DHT22;22841;50.252;18.688;2023-03-01T04:52:52;-2.90;22.90
36924;DHT22;22841;50.252;18.688;2023-03-01T04:55:18;-3.00;19.20
36924;DHT22;22841;50.252;18.688;2023-03-01T04:57:45;-3.10;22.70
36924;DHT22;22841;50.252;18.688;2023-03-01T05:00:13;-3.00;29.50
36924;DHT22;22841;50.252;18.688;2023-03-01T05:02:57;-3.00;27.60
36924;DHT22;22841;50.252;18.688;2023-03-01T05:05:30;-3.00;25.50
36924;DHT22;22841;50.252;18.688;2023-03-01T05:07:59;-3.00;29.90
36924;DHT22;22841;50.252;18.688;2023-03-01T05:10:27;-3.00;27.30
36924;DHT22;22841;50.252;18.688;2023-03-01T05:12:55;-3.10;26.80
36924;DHT22;22841;50.252;18.688;2023-03-01T05:15:24;-3.10;26.40
36924;DHT22;22841;50.252;18.688;2023-03-01T05:17:55;-3.10;29.00
36924;DHT22;22841;50.252;18.688;2023-03-01T05:20:21;-3.10;27.70
36924;DHT22;22841;50.252;18.688;2023-03-01T05:22:57;-3.10;25.80
36924;DHT22;22841;50.252;18.688;2023-03-01T05:25:32;-3.00;26.20
36924;DHT22;22841;50.252;18.688;2023-03-01T05:28:00;-3.00;27.40
36924;DHT22;22841;50.252;18.688;2023-03-01T05:30:34;-3.10;25.50
36924;DHT22;22841;50.252;18.688;2023-03-01T05:33:00;-3.10;24.50
36924;DHT22;22841;50.252;18.688;2023-03-01T05:35:27;-3.10;25.60
36924;DHT22;22841;50.252;18.688;2023-03-01T05:37:53;-3.00;25.10
36924;DHT22;22841;50.252;18.688;2023-03-01T05:40:21;-3.10;26.40
36924;DHT22;22841;50.252;18.688;2023-03-01T05:42:53;-3.10;27.60
36924;DHT22;22841;50.252;18.688;2023-03-01T05:45:21;-3.10;27.20
36924;DHT22;22841;50.252;18.688;2023-03-01T05:47:48;-3.10;26.70
36924;DHT22;22841;50.252;18.688;2023-03-01T05:50:20;-3.00;27.20
36924;DHT22;22841;50.252;18.688;2023-03-01T05:52:48;-3.10;26.00
36924;DHT22;22841;50.252;18.688;2023-03-01T05:55:19;-3.10;24.80
36924;DHT22;22841;50.252;18.688;2023-03-01T05:57:46;-3.10;23.80
36924;DHT22;22841;50.252;18.688;2023-03-01T06:00:13;-3.10;26.60
36924;DHT22;22841;50.252;18.688;2023-03-01T06:02:40;-3.10;26.60
36924;DHT22;22841;50.252;18.688;2023-03-01T06:05:08;-3.10;25.80
36924;DHT22;22841;50.252;18.688;2023-03-01T06:07:34;-3.10;28.40
36924;DHT22;22841;50.252;18.688;2023-03-01T06:10:02;-3.10;29.70
36924;DHT22;22841;50.252;18.688;2023-03-01T06:12:35;-3.10;29.50
36924;DHT22;22841;50.252;18.688;2023-03-01T06:15:03;-3.10;32.50
36924;DHT22;22841;50.252;18.688;2023-03-01T06:17:32;-3.10;38.00
36924;DHT22;22841;50.252;18.688;2023-03-01T06:19:58;-3.10;38.50
36924;DHT22;22841;50.252;18.688;2023-03-01T06:22:24;-3.10;39.30
36924;DHT22;22841;50.252;18.688;2023-03-01T06:24:50;-3.10;41.20
36924;DHT22;22841;50.252;18.688;2023-03-01T06:27:16;-3.10;46.00
36924;DHT22;22841;50.252;18.688;2023-03-01T06:29:42;-3.10;49.50
36924;DHT22;22841;50.252;18.688;2023-03-01T06:32:08;-3.10;55.10
36924;DHT22;22841;50.252;18.688;2023-03-01T06:34:34;-3.10;56.90
36924;DHT22;22841;50.252;18.688;2023-03-01T06:37:00;-3.00;59.00
36924;DHT22;22841;50.252;18.688;2023-03-01T06:39:31;-3.00;56.20
36924;DHT22;22841;50.252;18.688;2023-03-01T06:41:58;-2.90;55.30
36924;DHT22;22841;50.252;18.688;2023-03-01T06:44:24;-2.90;56.40
36924;DHT22;22841;50.252;18.688;2023-03-01T06:46:50;-2.90;58.70
36924;DHT22;22841;50.252;18.688;2023-03-01T06:49:16;-2.80;58.90
36924;DHT22;22841;50.252;18.688;2023-03-01T06:51:44;-2.80;63.30
36924;DHT22;22841;50.252;18.688;2023-03-01T06:54:10;-2.80;65.10
36924;DHT22;22841;50.252;18.688;2023-03-01T06:56:36;-2.70;64.30
36924;DHT22;22841;50.252;18.688;2023-03-01T06:59:03;-2.70;60.20
36924;DHT22;22841;50.252;18.688;2023-03-01T07:01:30;-2.60;60.30
36924;DHT22;22841;50.252;18.688;2023-03-01T07:03:56;-2.60;60.90
36924;DHT22;22841;50.252;18.688;2023-03-01T07:45:32;-1.70;65.90
36924;DHT22;22841;50.252;18.688;2023-03-01T07:47:59;-1.50;66.90
36924;DHT22;22841;50.252;18.688;2023-03-01T07:50:25;-1.50;54.90
36924;DHT22;22841;50.252;18.688;2023-03-01T07:52:51;-1.50;56.30
36924;DHT22;22841;50.252;18.688;2023-03-01T07:58:25;-1.30;22.10
36924;DHT22;22841;50.252;18.688;2023-03-01T08:00:51;-1.30;26.70
36924;DHT22;22841;50.252;18.688;2023-03-01T08:06:54;-1.20;16.30
36924;DHT22;22841;50.252;18.688;2023-03-01T08:13:06;-1.00;10.90
36924;DHT22;22841;50.252;18.688;2023-03-01T08:15:32;-1.00;9.10
36924;DHT22;22841;50.252;18.688;2023-03-01T08:17:58;-0.90;1.00
36924;DHT22;22841;50.252;18.688;2023-03-01T08:23:45;-0.70;4.00
36924;DHT22;22841;50.252;18.688;2023-03-01T08:26:16;-0.70;1.00
36924;DHT22;22841;50.252;18.688;2023-03-01T08:28:44;-0.50;1.00
36924;DHT22;22841;50.252;18.688;2023-03-01T08:31:25;-0.40;1.00
36924;DHT22;22841;50.252;18.688;2023-03-01T08:37:38;-0.10;1.00
36924;DHT22;22841;50.252;18.688;2023-03-01T08:43:32;0.20;1.00
36924;DHT22;22841;50.252;18.688;2023-03-01T08:45:58;0.30;1.00
36924;DHT22;22841;50.252;18.688;2023-03-01T08:52:56;0.70;1.00
36924;DHT22;22841;50.252;18.688;2023-03-01T09:05:37;1.70;1.00
36924;DHT22;22841;50.252;18.688;2023-03-01T09:22:19;2.30;99.90
36924;DHT22;22841;50.252;18.688;2023-03-01T09:28:37;2.30;99.90
36924;DHT22;22841;50.252;18.688;2023-03-01T09:34:49;2.40;99.90
36924;DHT22;22841;50.252;18.688;2023-03-01T09:40:56;2.60;99.90
36924;DHT22;22841;50.252;18.688;2023-03-01T09:46:13;2.70;1.00
36924;DHT22;22841;50.252;18.688;2023-03-01T09:48:57;2.80;11.40
36924;DHT22;22841;50.252;18.688;2023-03-01T10:05:27;3.10;99.90
36924;DHT22;22841;50.252;18.688;2023-03-01T10:11:53;3.10;99.90
36924;DHT22;22841;50.252;18.688;2023-03-01T10:17:36;3.10;99.90
36924;DHT22;22841;50.252;18.688;2023-03-01T10:20:22;3.20;1.00
36924;DHT22;22841;50.252;18.688;2023-03-01T10:22:50;3.20;1.00
36924;DHT22;22841;50.252;18.688;2023-03-01T10:25:33;3.20;1.00
36924;DHT22;22841;50.252;18.688;2023-03-01T10:28:06;3.20;99.90
36924;DHT22;22841;50.252;18.688;2023-03-01T10:30:38;3.20;99.90
36924;DHT22;22841;50.252;18.688;2023-03-01T10:33:37;3.20;99.90
36924;DHT22;22841;50.252;18.688;2023-03-01T10:36:05;3.20;99.90
36924;DHT22;22841;50.252;18.688;2023-03-01T10:38:54;3.20;99.90
36924;DHT22;22841;50.252;18.688;2023-03-01T10:41:21;3.20;99.90
36924;DHT22;22841;50.252;18.688;2023-03-01T10:43:58;3.10;1.00
36924;DHT22;22841;50.252;18.688;2023-03-01T10:46:36;3.10;99.90
36924;DHT22;22841;50.252;18.688;2023-03-01T10:49:21;3.10;1.00
36924;DHT22;22841;50.252;18.688;2023-03-01T10:51:50;3.20;99.90
36924;DHT22;22841;50.252;18.688;2023-03-01T11:23:10;3.50;1.00
36924;DHT22;22841;50.252;18.688;2023-03-01T11:26:07;3.50;99.90
36924;DHT22;22841;50.252;18.688;2023-03-01T11:29:04;3.60;99.90
36924;DHT22;22841;50.252;18.688;2023-03-01T11:31:59;3.80;43.10
36924;DHT22;22841;50.252;18.688;2023-03-01T11:35:08;3.90;99.90
36924;DHT22;22841;50.252;18.688;2023-03-01T11:38:15;4.10;99.90
36924;DHT22;22841;50.252;18.688;2023-03-01T11:44:25;4.20;2.30
36924;DHT22;22841;50.252;18.688;2023-03-01T11:50:29;4.20;51.90
36924;DHT22;22841;50.252;18.688;2023-03-01T11:56:34;4.30;26.50
36924;DHT22;22841;50.252;18.688;2023-03-01T12:12:31;4.30;71.30
36924;DHT22;22841;50.252;18.688;2023-03-01T12:15:45;4.30;23.30
36924;DHT22;22841;50.252;18.688;2023-03-01T12:22:34;4.50;99.90
36924;DHT22;22841;50.252;18.688;2023-03-01T12:25:18;4.60;1.00
36924;DHT22;22841;50.252;18.688;2023-03-01T12:36:01;4.70;99.90
36924;DHT22;22841;50.252;18.688;2023-03-01T12:44:23;5.00;99.90
36924;DHT22;22841;50.252;18.688;2023-03-01T12:49:41;4.80;99.90
36924;DHT22;22841;50.252;18.688;2023-03-01T12:52:13;4.70;25.90
36924;DHT22;22841;50.252;18.688;2023-03-01T12:54:41;4.70;99.90
36924;DHT22;22841;50.252;18.688;2023-03-01T12:57:25;4.70;1.00
36924;DHT22;22841;50.252;18.688;2023-03-01T13:00:22;4.90;99.90
36924;DHT22;22841;50.252;18.688;2023-03-01T13:03:02;5.00;99.90
36924;DHT22;22841;50.252;18.688;2023-03-01T13:06:17;5.20;99.90
36924;DHT22;22841;50.252;18.688;2023-03-01T13:11:26;5.40;99.90
36924;DHT22;22841;50.252;18.688;2023-03-01T13:16:52;5.30;1.00
36924;DHT22;22841;50.252;18.688;2023-03-01T13:19:21;5.40;99.90
36924;DHT22;22841;50.252;18.688;2023-03-01T13:21:49;5.30;1.00
36924;DHT22;22841;50.252;18.688;2023-03-01T13:24:35;5.40;99.90
36924;DHT22;22841;50.252;18.688;2023-03-01T13:29:51;5.30;99.90
36924;DHT22;22841;50.252;18.688;2023-03-01T13:34:53;5.30;99.90
36924;DHT22;22841;50.252;18.688;2023-03-01T13:37:25;5.40;99.90
36924;DHT22;22841;50.252;18.688;2023-03-01T13:39:57;5.60;1.00
36924;DHT22;22841;50.252;18.688;2023-03-01T13:42:35;5.50;12.50
36924;DHT22;22841;50.252;18.688;2023-03-01T13:45:15;5.60;99.90
36924;DHT22;22841;50.252;18.688;2023-03-01T13:47:43;5.60;99.90
36924;DHT22;22841;50.252;18.688;2023-03-01T13:50:19;5.50;93.00
36924;DHT22;22841;50.252;18.688;2023-03-01T13:52:57;5.50;99.90
36924;DHT22;22841;50.252;18.688;2023-03-01T14:00:45;5.80;99.90
36924;DHT22;22841;50.252;18.688;2023-03-01T14:03:18;5.80;99.90
36924;DHT22;22841;50.252;18.688;2023-03-01T14:08:27;5.90;99.90
36924;DHT22;22841;50.252;18.688;2023-03-01T14:17:21;5.90;99.90
36924;DHT22;22841;50.252;18.688;2023-03-01T14:19:29;5.80;99.90
36924;DHT22;22841;50.252;18.688;2023-03-01T14:22:25;5.80;99.90
36924;DHT22;22841;50.252;18.688;2023-03-01T14:25:00;5.70;82.60
36924;DHT22;22841;50.252;18.688;2023-03-01T14:27:30;5.70;1.00
36924;DHT22;22841;50.252;18.688;2023-03-01T14:30:00;5.60;99.90
36924;DHT22;22841;50.252;18.688;2023-03-01T14:32:29;5.60;1.00
36924;DHT22;22841;50.252;18.688;2023-03-01T14:34:56;5.70;99.90
36924;DHT22;22841;50.252;18.688;2023-03-01T14:37:34;5.80;99.90
36924;DHT22;22841;50.252;18.688;2023-03-01T14:40:03;5.80;99.90
36924;DHT22;22841;50.252;18.688;2023-03-01T14:42:34;5.90;99.90
36924;DHT22;22841;50.252;18.688;2023-03-01T14:45:02;5.80;1.00
36924;DHT22;22841;50.252;18.688;2023-03-01T14:47:31;5.80;99.90
36924;DHT22;22841;50.252;18.688;2023-03-01T14:52:37;5.80;1.00
36924;DHT22;22841;50.252;18.688;2023-03-01T14:55:15;5.80;50.40
36924;DHT22;22841;50.252;18.688;2023-03-01T14:57:44;5.80;99.90
36924;DHT22;22841;50.252;18.688;2023-03-01T15:00:20;5.90;99.90
36924;DHT22;22841;50.252;18.688;2023-03-01T15:02:54;5.90;99.90
36924;DHT22;22841;50.252;18.688;2023-03-01T15:05:31;6.00;99.90
36924;DHT22;22841;50.252;18.688;2023-03-01T15:08:00;5.90;1.00
36924;DHT22;22841;50.252;18.688;2023-03-01T15:10:29;5.90;1.00
36924;DHT22;22841;50.252;18.688;2023-03-01T15:12:56;5.70;1.00
36924;DHT22;22841;50.252;18.688;2023-03-01T15:18:26;5.50;99.90
36924;DHT22;22841;50.252;18.688;2023-03-01T15:20:54;5.40;99.90
36924;DHT22;22841;50.252;18.688;2023-03-01T15:23:28;5.30;99.90
36924;DHT22;22841;50.252;18.688;2023-03-01T15:25:57;5.20;99.90
36924;DHT22;22841;50.252;18.688;2023-03-01T15:28:29;5.20;99.90
36924;DHT22;22841;50.252;18.688;2023-03-01T15:31:03;5.10;99.90
36924;DHT22;22841;50.252;18.688;2023-03-01T15:33:33;5.00;99.90
36924;DHT22;22841;50.252;18.688;2023-03-01T15:36:03;5.00;99.90
36924;DHT22;22841;50.252;18.688;2023-03-01T15:38:53;5.00;99.90
36924;DHT22;22841;50.252;18.688;2023-03-01T15:41:31;4.90;99.90
36924;DHT22;22841;50.252;18.688;2023-03-01T15:44:15;4.90;99.90
36924;DHT22;22841;50.252;18.688;2023-03-01T15:46:46;4.80;99.90
36924;DHT22;22841;50.252;18.688;2023-03-01T15:49:28;4.70;99.90
36924;DHT22;22841;50.252;18.688;2023-03-01T15:51:57;4.70;99.90
36924;DHT22;22841;50.252;18.688;2023-03-01T15:54:25;4.60;99.90
36924;DHT22;22841;50.252;18.688;2023-03-01T15:56:52;4.60;1.00
36924;DHT22;22841;50.252;18.688;2023-03-01T15:59:19;4.50;1.00
36924;DHT22;22841;50.252;18.688;2023-03-01T16:01:45;4.40;1.00
36924;DHT22;22841;50.252;18.688;2023-03-01T16:04:16;4.30;30.30
36924;DHT22;22841;50.252;18.688;2023-03-01T16:06:52;4.30;70.50
36924;DHT22;22841;50.252;18.688;2023-03-01T16:09:25;4.20;70.80
36924;DHT22;22841;50.252;18.688;2023-03-01T16:11:52;4.10;99.90
36924;DHT22;22841;50.252;18.688;2023-03-01T16:14:19;4.00;99.90
36924;DHT22;22841;50.252;18.688;2023-03-01T16:16:45;3.80;1.00
36924;DHT22;22841;50.252;18.688;2023-03-01T16:19:14;3.70;1.00
36924;DHT22;22841;50.252;18.688;2023-03-01T16:21:41;3.50;1.00
36924;DHT22;22841;50.252;18.688;2023-03-01T16:24:09;3.50;1.00
36924;DHT22;22841;50.252;18.688;2023-03-01T16:26:37;3.30;99.90
36924;DHT22;22841;50.252;18.688;2023-03-01T16:29:04;3.20;1.00
36924;DHT22;22841;50.252;18.688;2023-03-01T16:31:30;3.00;99.90
36924;DHT22;22841;50.252;18.688;2023-03-01T16:33:58;2.90;1.00
36924;DHT22;22841;50.252;18.688;2023-03-01T16:36:25;2.90;22.90
36924;DHT22;22841;50.252;18.688;2023-03-01T16:38:54;2.80;1.00
36924;DHT22;22841;50.252;18.688;2023-03-01T16:41:22;2.70;1.00
36924;DHT22;22841;50.252;18.688;2023-03-01T16:43:49;2.60;1.00
36924;DHT22;22841;50.252;18.688;2023-03-01T16:46:20;2.60;90.00
36924;DHT22;22841;50.252;18.688;2023-03-01T16:48:48;2.50;99.90
36924;DHT22;22841;50.252;18.688;2023-03-01T16:51:15;2.30;99.90
36924;DHT22;22841;50.252;18.688;2023-03-01T16:53:41;2.30;99.90
36924;DHT22;22841;50.252;18.688;2023-03-01T16:56:08;2.20;99.90
36924;DHT22;22841;50.252;18.688;2023-03-01T16:58:36;2.30;99.90
36924;DHT22;22841;50.252;18.688;2023-03-01T17:01:14;2.30;1.00
36924;DHT22;22841;50.252;18.688;2023-03-01T17:03:41;2.30;99.90
36924;DHT22;22841;50.252;18.688;2023-03-01T17:06:11;2.30;99.90
36924;DHT22;22841;50.252;18.688;2023-03-01T17:08:38;2.30;1.00
36924;DHT22;22841;50.252;18.688;2023-03-01T17:11:09;2.30;1.00
36924;DHT22;22841;50.252;18.688;2023-03-01T17:13:36;2.20;19.10
36924;DHT22;22841;50.252;18.688;2023-03-01T17:16:08;2.20;1.00
36924;DHT22;22841;50.252;18.688;2023-03-01T17:18:34;2.10;99.90
36924;DHT22;22841;50.252;18.688;2023-03-01T17:21:19;2.00;99.90
36924;DHT22;22841;50.252;18.688;2023-03-01T17:23:46;2.00;32.60
36924;DHT22;22841;50.252;18.688;2023-03-01T17:26:12;2.00;1.00
36924;DHT22;22841;50.252;18.688;2023-03-01T17:32:00;1.90;35.70
36924;DHT22;22841;50.252;18.688;2023-03-01T17:34:27;1.70;1.00
36924;DHT22;22841;50.252;18.688;2023-03-01T17:37:02;1.70;1.00
36924;DHT22;22841;50.252;18.688;2023-03-01T17:39:29;1.60;1.00
36924;DHT22;22841;50.252;18.688;2023-03-01T17:42:02;1.70;70.20
36924;DHT22;22841;50.252;18.688;2023-03-01T17:44:30;1.70;99.90
36924;DHT22;22841;50.252;18.688;2023-03-01T17:47:02;1.70;60.90
36924;DHT22;22841;50.252;18.688;2023-03-01T17:49:28;1.70;60.50
36924;DHT22;22841;50.252;18.688;2023-03-01T17:51:55;1.70;75.10
36924;DHT22;22841;50.252;18.688;2023-03-01T17:57:47;1.70;90.10
36924;DHT22;22841;50.252;18.688;2023-03-01T18:00:15;1.70;99.90
36924;DHT22;22841;50.252;18.688;2023-03-01T18:02:42;1.70;99.90
36924;DHT22;22841;50.252;18.688;2023-03-01T18:05:09;1.70;99.90
36924;DHT22;22841;50.252;18.688;2023-03-01T18:08:02;1.60;90.70
36924;DHT22;22841;50.252;18.688;2023-03-01T18:10:28;1.60;99.90
36924;DHT22;22841;50.252;18.688;2023-03-01T18:12:54;1.60;99.90
36924;DHT22;22841;50.252;18.688;2023-03-01T18:15:20;1.50;99.90
36924;DHT22;22841;50.252;18.688;2023-03-01T18:21:14;1.40;99.90
36924;DHT22;22841;50.252;18.688;2023-03-01T18:48:58;1.10;99.90
36924;DHT22;22841;50.252;18.688;2023-03-01T18:55:09;1.00;99.90
36924;DHT22;22841;50.252;18.688;2023-03-01T18:58:01;1.00;99.90
36924;DHT22;22841;50.252;18.688;2023-03-01T19:11:47;1.00;99.90
36924;DHT22;22841;50.252;18.688;2023-03-01T19:25:38;0.90;99.90
36924;DHT22;22841;50.252;18.688;2023-03-01T20:49:56;-0.40;99.90
36924;DHT22;22841;50.252;18.688;2023-03-01T21:02:40;-0.40;99.90
36924;DHT22;22841;50.252;18.688;2023-03-01T21:09:05;-0.40;99.90
36924;DHT22;22841;50.252;18.688;2023-03-01T21:15:12;-0.40;1.00
36924;DHT22;22841;50.252;18.688;2023-03-01T21:21:19;-0.30;1.00
36924;DHT22;22841;50.252;18.688;2023-03-01T21:23:46;-0.40;99.90
36924;DHT22;22841;50.252;18.688;2023-03-01T21:26:14;-0.50;99.90
36924;DHT22;22841;50.252;18.688;2023-03-01T21:28:41;-0.50;1.00
36924;DHT22;22841;50.252;18.688;2023-03-01T21:31:10;-0.50;1.00
36924;DHT22;22841;50.252;18.688;2023-03-01T21:33:38;-0.60;1.00
36924;DHT22;22841;50.252;18.688;2023-03-01T21:36:09;-0.50;1.00
36924;DHT22;22841;50.252;18.688;2023-03-01T21:38:38;-0.50;1.00
36924;DHT22;22841;50.252;18.688;2023-03-01T21:41:13;-0.40;1.00
36924;DHT22;22841;50.252;18.688;2023-03-01T21:43:41;-0.40;1.00
36924;DHT22;22841;50.252;18.688;2023-03-01T22:15:23;-0.90;1.00
36924;DHT22;22841;50.252;18.688;2023-03-01T22:17:49;-1.10;1.00
36924;DHT22;22841;50.252;18.688;2023-03-01T22:20:16;-1.20;1.00
36924;DHT22;22841;50.252;18.688;2023-03-01T22:22:42;-1.30;1.00
36924;DHT22;22841;50.252;18.688;2023-03-01T22:25:09;-1.20;1.00
36924;DHT22;22841;50.252;18.688;2023-03-01T22:27:35;-1.10;1.00
36924;DHT22;22841;50.252;18.688;2023-03-01T22:30:07;-1.00;1.00
36924;DHT22;22841;50.252;18.688;2023-03-01T22:32:34;-1.00;1.00
36924;DHT22;22841;50.252;18.688;2023-03-01T22:35:00;-1.00;1.00
36924;DHT22;22841;50.252;18.688;2023-03-01T22:37:26;-1.00;1.00
36924;DHT22;22841;50.252;18.688;2023-03-01T22:39:52;-1.00;1.00
36924;DHT22;22841;50.252;18.688;2023-03-01T22:42:18;-1.00;1.00
36924;DHT22;22841;50.252;18.688;2023-03-01T22:44:44;-1.20;1.00
36924;DHT22;22841;50.252;18.688;2023-03-01T22:47:11;-1.20;1.00
36924;DHT22;22841;50.252;18.688;2023-03-01T22:49:37;-1.20;1.00
36924;DHT22;22841;50.252;18.688;2023-03-01T22:52:03;-1.20;1.00
36924;DHT22;22841;50.252;18.688;2023-03-01T22:54:29;-1.30;1.00
36924;DHT22;22841;50.252;18.688;2023-03-01T22:56:55;-1.40;1.00
36924;DHT22;22841;50.252;18.688;2023-03-01T22:59:22;-1.30;1.00
36924;DHT22;22841;50.252;18.688;2023-03-01T23:01:48;-1.30;1.00
36924;DHT22;22841;50.252;18.688;2023-03-01T23:04:15;-1.30;1.00
36924;DHT22;22841;50.252;18.688;2023-03-01T23:06:41;-1.20;1.00
36924;DHT22;22841;50.252;18.688;2023-03-01T23:09:30;-1.20;1.00
36924;DHT22;22841;50.252;18.688;2023-03-01T23:11:59;-1.20;1.00
36924;DHT22;22841;50.252;18.688;2023-03-01T23:14:29;-1.20;1.00
36924;DHT22;22841;50.252;18.688;2023-03-01T23:16:55;-1.20;1.00
36924;DHT22;22841;50.252;18.688;2023-03-01T23:19:22;-1.20;1.00
36924;DHT22;22841;50.252;18.688;2023-03-01T23:21:48;-1.40;1.00
36924;DHT22;22841;50.252;18.688;2023-03-01T23:24:21;-1.30;1.00
36924;DHT22;22841;50.252;18.688;2023-03-01T23:26:48;-1.40;1.00
36924;DHT22;22841;50.252;18.688;2023-03-01T23:29:20;-1.40;1.00
36924;DHT22;22841;50.252;18.688;2023-03-01T23:31:47;-1.30;1.00
36924;DHT22;22841;50.252;18.688;2023-03-01T23:34:13;-1.30;1.00
36924;DHT22;22841;50.252;18.688;2023-03-01T23:36:39;-1.50;1.00
36924;DHT22;22841;50.252;18.688;2023-03-01T23:39:11;-1.50;1.00
36924;DHT22;22841;50.252;18.688;2023-03-01T23:41:38;-1.60;1.00
36924;DHT22;22841;50.252;18.688;2023-03-01T23:44:05;-1.50;1.00
36924;DHT22;22841;50.252;18.688;2023-03-01T23:46:33;-1.50;1.00
36924;DHT22;22841;50.252;18.688;2023-03-01T23:49:00;-1.50;1.00
36924;DHT22;22841;50.252;18.688;2023-03-01T23:51:26;-1.60;1.00
36924;DHT22;22841;50.252;18.688;2023-03-01T23:54:01;-1.50;1.00
36924;DHT22;22841;50.252;18.688;2023-03-01T23:56:33;-1.50;1.00
36924;DHT22;22841;50.252;18.688;2023-03-01T23:59:05;-1.60;1.00
